createdAt,value
2022-08-16T00:03:37.722Z,21.80
2022-08-16T00:08:40.632Z,21.70
2022-08-16T00:13:53.604Z,21.70
2022-08-16T00:18:57.483Z,21.50
2022-08-16T00:24:04.895Z,21.60
2022-08-16T00:29:07.244Z,21.70
2022-08-16T00:34:09.893Z,21.40
2022-08-16T00:39:21.063Z,21.60
2022-08-16T00:44:23.464Z,21.40
2022-08-16T00:49:39.658Z,21.60
2022-08-16T00:54:47.109Z,21.40
2022-08-16T00:59:58.773Z,21.40
2022-08-16T01:05:10.391Z,21.10
2022-08-16T01:10:16.385Z,21.60
2022-08-16T01:15:19.176Z,21.30
2022-08-16T01:20:30.629Z,21.30
2022-08-16T01:25:38.266Z,21.20
2022-08-16T01:30:49.962Z,21.40
2022-08-16T01:36:02.579Z,21.10
2022-08-16T01:41:19.303Z,21.10
2022-08-16T01:46:40.119Z,21.10
2022-08-16T01:51:45.900Z,21.30
2022-08-16T01:56:49.346Z,20.60
2022-08-16T02:01:59.462Z,21.30
2022-08-16T02:07:11.289Z,21.10
2022-08-16T02:12:40.172Z,21.00
2022-08-16T02:17:38.527Z,21.20
2022-08-16T02:22:42.939Z,20.90
2022-08-16T02:27:51.092Z,21.20
2022-08-16T02:32:54.638Z,21.00
2022-08-16T02:37:57.162Z,21.20
2022-08-16T02:43:04.696Z,21.10
2022-08-16T02:48:28.583Z,21.10
2022-08-16T02:53:31.907Z,21.00
2022-08-16T02:58:34.170Z,20.90
2022-08-16T03:04:40.912Z,20.80
2022-08-16T03:09:00.840Z,20.80
2022-08-16T03:14:07.276Z,20.40
2022-08-16T03:19:10.268Z,20.50
2022-08-16T03:24:28.377Z,20.30
2022-08-16T03:29:33.600Z,19.90
2022-08-16T03:34:35.938Z,20.10
2022-08-16T03:39:42.936Z,20.20
2022-08-16T03:44:49.456Z,20.40
2022-08-16T03:49:53.456Z,19.80
2022-08-16T03:54:59.468Z,20.30
2022-08-16T04:00:35.068Z,20.00
2022-08-16T04:05:48.222Z,19.90
2022-08-16T04:10:54.205Z,19.90
2022-08-16T04:15:59.182Z,19.70
2022-08-16T04:21:07.828Z,19.80
2022-08-16T04:26:16.586Z,19.80
2022-08-16T04:31:20.359Z,19.80
2022-08-16T04:36:27.380Z,19.60
2022-08-16T04:41:37.653Z,19.90
2022-08-16T04:47:02.558Z,19.90
2022-08-16T04:52:04.650Z,19.70
2022-08-16T04:57:29.930Z,19.90
2022-08-16T05:02:41.503Z,19.60
2022-08-16T05:07:58.258Z,19.80
2022-08-16T05:13:06.707Z,19.60
2022-08-16T05:18:10.068Z,19.70
2022-08-16T05:23:19.791Z,19.80
2022-08-16T05:28:23.382Z,19.80
2022-08-16T05:33:42.152Z,20.00
2022-08-16T05:38:44.643Z,20.10
2022-08-16T05:43:48.903Z,20.30
2022-08-16T05:48:55.071Z,20.50
2022-08-16T05:53:59.114Z,20.60
2022-08-16T05:59:01.388Z,21.00
2022-08-16T06:04:04.279Z,21.20
2022-08-16T06:09:17.683Z,21.40
2022-08-16T06:14:20.702Z,21.70
2022-08-16T06:19:23.886Z,21.70
2022-08-16T06:24:54.127Z,22.10
2022-08-16T06:29:50.530Z,22.30
2022-08-16T06:34:56.737Z,22.80
2022-08-16T06:40:12.628Z,23.10
2022-08-16T06:45:19.486Z,23.70
2022-08-16T06:50:28.868Z,23.70
2022-08-16T06:55:34.806Z,23.80
2022-08-16T07:00:43.969Z,24.30
2022-08-16T07:05:46.551Z,24.40
2022-08-16T07:10:51.508Z,24.40
2022-08-16T07:15:55.658Z,24.70
2022-08-16T07:21:01.971Z,24.50
2022-08-16T07:26:25.278Z,24.70
2022-08-16T07:31:37.481Z,24.70
2022-08-16T07:36:41.505Z,24.90
2022-08-16T07:41:47.846Z,25.00
2022-08-16T07:46:55.644Z,24.90
2022-08-16T07:51:58.927Z,25.20
2022-08-16T07:57:03.097Z,25.00
2022-08-16T08:02:06.529Z,25.30
2022-08-16T08:07:16.290Z,25.50
2022-08-16T08:12:32.159Z,25.70
2022-08-16T08:17:43.368Z,26.10
2022-08-16T08:22:49.114Z,26.20
2022-08-16T08:27:52.119Z,26.30
2022-08-16T08:33:01.788Z,26.50
2022-08-16T08:38:08.783Z,26.70
2022-08-16T08:43:17.967Z,26.90
2022-08-16T08:48:33.681Z,27.00
2022-08-16T08:53:39.662Z,26.80
2022-08-16T08:58:54.215Z,27.40
2022-08-16T09:04:03.402Z,27.70
2022-08-16T09:09:07.291Z,28.00
2022-08-16T09:14:24.264Z,28.30
2022-08-16T09:19:32.193Z,28.40
2022-08-16T09:24:52.909Z,28.60
2022-08-16T09:30:00.365Z,28.80
2022-08-16T09:35:06.352Z,28.90
2022-08-16T09:40:18.074Z,29.00
2022-08-16T09:45:38.912Z,29.10
2022-08-16T09:50:43.775Z,29.20
2022-08-16T09:55:49.320Z,29.30
2022-08-16T10:00:53.066Z,29.60
2022-08-16T10:05:57.071Z,29.70
2022-08-16T10:11:24.016Z,29.80
2022-08-16T10:16:27.258Z,29.90
2022-08-16T10:21:32.134Z,30.00
2022-08-16T10:27:16.987Z,30.10
2022-08-16T10:31:58.371Z,30.10
2022-08-16T10:37:02.163Z,30.30
2022-08-16T10:42:04.738Z,30.50
2022-08-16T10:47:07.226Z,30.30
2022-08-16T10:52:18.089Z,30.70
2022-08-16T10:57:24.575Z,30.80
2022-08-16T11:02:58.530Z,30.70
2022-08-16T11:07:53.422Z,30.70
2022-08-16T11:19:03.644Z,30.80
2022-08-16T11:23:59.071Z,31.00
2022-08-16T11:29:17.536Z,31.30
2022-08-16T11:34:21.284Z,31.50
2022-08-16T11:39:23.453Z,31.70
2022-08-16T11:44:43.705Z,31.90
2022-08-16T11:49:48.246Z,32.10
2022-08-16T11:54:56.810Z,32.50
2022-08-16T12:00:00.489Z,32.70
2022-08-16T12:05:02.616Z,33.50
2022-08-16T12:10:08.817Z,33.30
2022-08-16T12:15:13.043Z,33.70
2022-08-16T12:20:21.555Z,34.00
2022-08-16T12:25:25.921Z,34.40
2022-08-16T12:30:37.732Z,34.70
2022-08-16T12:35:41.784Z,34.90
2022-08-16T12:40:50.756Z,35.10
2022-08-16T12:45:56.330Z,35.30
2022-08-16T12:51:02.201Z,35.40
2022-08-16T12:56:07.199Z,35.60
2022-08-16T13:01:12.053Z,35.80
2022-08-16T13:06:19.933Z,36.10
2022-08-16T13:11:35.734Z,36.30
2022-08-16T13:21:47.038Z,36.60
2022-08-16T13:26:53.186Z,36.60
2022-08-16T13:31:56.669Z,36.60
2022-08-16T13:36:58.968Z,37.00
2022-08-16T13:42:03.012Z,37.40
2022-08-16T13:47:07.357Z,37.70
2022-08-16T13:52:11.052Z,37.80
2022-08-16T13:57:13.705Z,38.10
2022-08-16T14:02:15.989Z,38.40
2022-08-16T14:07:19.875Z,38.90
2022-08-16T14:12:30.288Z,39.40
2022-08-16T14:17:38.399Z,39.40
2022-08-16T14:22:55.373Z,39.20
2022-08-16T14:27:57.973Z,39.10
2022-08-16T14:33:00.156Z,39.60
2022-08-16T14:38:02.500Z,40.40
2022-08-16T14:43:07.342Z,41.20
2022-08-16T14:48:10.218Z,41.80
2022-08-16T14:53:12.612Z,42.50
2022-08-16T14:58:19.327Z,43.20
2022-08-16T15:03:23.271Z,43.60
2022-08-16T15:08:36.341Z,43.90
2022-08-16T15:13:41.039Z,44.50
2022-08-16T15:18:46.720Z,45.20
2022-08-16T15:23:49.513Z,45.70
2022-08-16T15:28:51.760Z,46.10
2022-08-16T15:33:58.119Z,46.50
2022-08-16T15:39:07.106Z,46.80
2022-08-16T15:44:25.283Z,47.10
2022-08-16T15:49:34.422Z,47.50
2022-08-16T15:54:38.045Z,47.80
2022-08-16T16:00:04.141Z,48.00
2022-08-16T16:05:14.124Z,48.00
2022-08-16T16:10:16.335Z,48.10
2022-08-16T16:15:22.762Z,48.20
2022-08-16T16:20:27.941Z,48.30
2022-08-16T16:25:32.321Z,48.20
2022-08-16T16:30:44.862Z,48.20
2022-08-16T16:35:54.927Z,48.00
2022-08-16T16:41:02.038Z,47.70
2022-08-16T16:46:40.940Z,47.10
2022-08-16T16:51:31.182Z,45.90
2022-08-16T16:56:37.575Z,44.30
2022-08-16T17:01:59.921Z,42.90
2022-08-16T17:07:10.791Z,41.60
2022-08-16T17:12:22.624Z,40.30
2022-08-16T17:17:29.559Z,39.10
2022-08-16T17:22:32.719Z,38.10
2022-08-16T17:27:37.444Z,37.40
2022-08-16T17:32:48.247Z,36.80
2022-08-16T17:37:53.551Z,36.20
2022-08-16T17:42:57.422Z,35.70
2022-08-16T17:47:59.793Z,35.20
2022-08-16T17:53:04.846Z,34.80
2022-08-16T17:58:22.211Z,34.40
2022-08-16T18:04:03.088Z,33.90
2022-08-16T18:09:03.640Z,33.40
2022-08-16T18:14:06.599Z,33.00
2022-08-16T18:19:10.257Z,32.50
2022-08-16T18:24:15.104Z,32.10
2022-08-16T18:29:18.021Z,31.70
2022-08-16T18:34:20.637Z,31.30
2022-08-16T18:39:22.813Z,31.00
2022-08-16T18:44:31.071Z,30.60
2022-08-16T18:49:36.360Z,30.10
2022-08-16T18:55:02.248Z,30.00
2022-08-16T19:00:00.660Z,29.70
2022-08-16T19:05:02.942Z,29.40
2022-08-16T19:10:06.554Z,29.20
2022-08-16T19:15:14.412Z,28.80
2022-08-16T19:20:21.985Z,28.80
2022-08-16T19:25:46.248Z,29.00
2022-08-16T19:30:48.736Z,28.50
2022-08-16T19:35:51.510Z,28.20
2022-08-16T19:40:53.878Z,28.00
2022-08-16T19:45:56.591Z,27.80
2022-08-16T19:50:58.768Z,27.60
2022-08-16T19:56:00.944Z,27.40
2022-08-16T20:01:03.192Z,27.20
2022-08-16T20:06:11.114Z,27.00
2022-08-16T20:11:31.644Z,26.90
2022-08-16T20:16:33.868Z,26.70
2022-08-16T20:21:36.248Z,26.60
2022-08-16T20:26:38.500Z,26.40
2022-08-16T20:31:40.682Z,26.20
2022-08-16T20:36:43.810Z,26.10
2022-08-16T20:41:45.944Z,25.90
2022-08-16T20:46:48.023Z,25.70
2022-08-16T20:51:54.717Z,25.60
2022-08-16T20:56:59.542Z,25.40
2022-08-16T21:02:02.740Z,25.30
2022-08-16T21:07:04.940Z,25.20
2022-08-16T21:12:11.451Z,25.00
2022-08-16T21:17:16.154Z,24.80
2022-08-16T21:22:22.768Z,24.70
2022-08-16T21:27:25.015Z,24.60
2022-08-16T21:32:34.847Z,24.40
2022-08-16T21:37:38.965Z,24.30
2022-08-16T21:42:42.848Z,24.40
2022-08-16T21:47:45.037Z,24.10
2022-08-16T21:52:47.189Z,24.10
2022-08-16T21:57:49.384Z,23.70
2022-08-16T22:02:55.536Z,23.90
2022-08-16T22:08:01.337Z,23.80
2022-08-16T22:13:16.619Z,23.60
2022-08-16T22:18:19.300Z,23.70
2022-08-16T22:23:22.723Z,23.30
2022-08-16T22:28:25.792Z,23.40
2022-08-16T22:33:28.540Z,23.30
2022-08-16T22:38:56.156Z,22.90
2022-08-16T22:43:53.280Z,23.10
2022-08-16T22:48:55.490Z,23.10
2022-08-16T22:53:57.822Z,22.90
2022-08-16T22:59:00.110Z,22.90
2022-08-16T23:04:03.894Z,22.80
2022-08-16T23:09:06.044Z,23.00
2022-08-16T23:14:08.299Z,22.30
2022-08-16T23:19:12.604Z,22.60
2022-08-16T23:24:17.480Z,22.50
2022-08-16T23:29:25.183Z,22.40
2022-08-16T23:34:29.426Z,22.30
2022-08-16T23:39:31.619Z,22.30
2022-08-16T23:44:56.608Z,22.10
2022-08-16T23:50:03.444Z,22.20
2022-08-16T23:55:06.995Z,22.00
